Terminal Aerodrome Forecast
Issued by NWS

Home | Current Version | Previous Version | Text Only | Print | Product List | Glossary On
Versions: 1 2 3 4 5 6 7 8 9 10 11 12 13 14 15 16 17 18
000
FTAK31 PANC 250541
TAFAVD
TAF
PAVD 250541Z 2506/2606 00000KT 3SM RA BR SCT008 OVC015
      TEMPO 2506/2509 6SM -RA SCT015 OVC050
     FM260000 VRB04KT 6SM -SHRA SCT020 OVC035
      AMD LTD TO CLD VIS AND WIND=

USA.gov is the U.S. government's official web portal to all federal, state and local government web resources and services.